createdAt,value
2022-07-27T00:01:31.130Z,3.67
2022-07-27T00:03:59.797Z,3.67
2022-07-27T00:06:28.663Z,3.70
2022-07-27T00:08:57.300Z,3.58
2022-07-27T00:11:25.924Z,3.40
2022-07-27T00:13:54.594Z,3.78
2022-07-27T00:16:24.587Z,3.75
2022-07-27T00:18:53.370Z,3.38
2022-07-27T00:21:21.995Z,3.42
2022-07-27T00:23:50.601Z,3.22
2022-07-27T00:26:19.263Z,3.45
2022-07-27T00:28:47.839Z,3.55
2022-07-27T00:31:16.471Z,3.58
2022-07-27T00:33:46.516Z,3.38
2022-07-27T00:36:15.460Z,3.70
2022-07-27T00:38:44.049Z,3.22
2022-07-27T00:41:12.753Z,3.47
2022-07-27T00:43:54.843Z,3.50
2022-07-27T00:46:23.736Z,3.15
2022-07-27T00:48:54.373Z,3.13
2022-07-27T00:51:23.485Z,3.42
2022-07-27T00:53:53.309Z,3.10
2022-07-27T00:56:22.218Z,3.50
2022-07-27T00:58:51.868Z,3.28
2022-07-27T01:01:20.932Z,3.35
2022-07-27T01:03:49.648Z,3.33
2022-07-27T01:06:26.768Z,3.13
2022-07-27T01:09:17.067Z,3.33
2022-07-27T01:11:45.844Z,3.50
2022-07-27T01:14:14.721Z,4.38
2022-07-27T01:16:43.426Z,3.60
2022-07-27T01:19:12.791Z,3.95
2022-07-27T01:21:43.577Z,4.45
2022-07-27T01:24:12.512Z,4.15
2022-07-27T01:26:41.118Z,3.97
2022-07-27T01:29:09.987Z,3.72
2022-07-27T01:31:38.846Z,3.88
2022-07-27T01:34:07.660Z,3.65
2022-07-27T01:36:38.401Z,3.30
2022-07-27T01:39:08.660Z,3.78
2022-07-27T01:41:37.456Z,3.58
2022-07-27T01:44:06.230Z,3.70
2022-07-27T01:46:34.909Z,3.50
2022-07-27T01:49:03.814Z,3.38
2022-07-27T01:51:32.565Z,3.40
2022-07-27T01:54:01.185Z,3.30
2022-07-27T01:56:31.162Z,3.42
2022-07-27T01:59:00.135Z,3.10
2022-07-27T02:01:28.792Z,3.22
2022-07-27T02:03:57.410Z,3.20
2022-07-27T02:06:26.015Z,3.67
2022-07-27T02:08:54.652Z,3.47
2022-07-27T02:11:40.974Z,3.70
2022-07-27T02:14:10.900Z,3.67
2022-07-27T02:16:39.596Z,3.63
2022-07-27T02:19:09.133Z,4.35
2022-07-27T02:21:39.901Z,3.22
2022-07-27T02:24:08.957Z,3.65
2022-07-27T02:26:37.577Z,4.00
2022-07-27T02:29:06.348Z,3.58
2022-07-27T02:31:36.474Z,3.67
2022-07-27T02:34:05.279Z,4.00
2022-07-27T02:36:33.833Z,3.63
2022-07-27T02:39:02.736Z,3.40
2022-07-27T02:41:31.355Z,3.30
2022-07-27T02:43:59.957Z,3.53
2022-07-27T02:46:28.705Z,3.97
2022-07-27T02:48:58.790Z,4.22
2022-07-27T02:51:27.554Z,4.25
2022-07-27T02:53:56.499Z,3.58
2022-07-27T02:56:26.674Z,3.70
2022-07-27T02:58:55.746Z,3.92
2022-07-27T03:03:55.946Z,3.67
2022-07-27T03:06:25.984Z,3.88
2022-07-27T03:08:54.599Z,3.60
2022-07-27T03:11:23.316Z,3.60
2022-07-27T03:13:51.872Z,4.30
2022-07-27T03:16:20.759Z,3.35
2022-07-27T03:18:49.885Z,3.38
2022-07-27T03:21:18.621Z,3.33
2022-07-27T03:23:48.724Z,3.55
2022-07-27T03:26:18.228Z,3.03
2022-07-27T03:28:46.868Z,3.10
2022-07-27T03:31:15.580Z,3.38
2022-07-27T03:33:44.314Z,3.17
2022-07-27T03:36:12.940Z,3.03
2022-07-27T03:38:41.564Z,3.20
2022-07-27T03:41:11.670Z,3.25
2022-07-27T03:43:40.287Z,2.72
2022-07-27T03:46:08.916Z,3.20
2022-07-27T03:48:37.691Z,2.95
2022-07-27T03:51:06.363Z,2.90
2022-07-27T03:53:35.012Z,2.97
2022-07-27T03:56:03.574Z,2.88
2022-07-27T03:58:33.739Z,3.05
2022-07-27T04:01:02.473Z,3.03
2022-07-27T04:03:31.112Z,3.10
2022-07-27T04:06:00.454Z,2.55
2022-07-27T04:08:29.092Z,3.15
2022-07-27T04:10:57.821Z,2.53
2022-07-27T04:13:26.725Z,2.90
2022-07-27T04:15:57.957Z,2.55
2022-07-27T04:18:27.322Z,2.63
2022-07-27T04:20:55.844Z,2.85
2022-07-27T04:23:24.429Z,2.95
2022-07-27T04:25:53.104Z,2.55
2022-07-27T04:28:21.734Z,2.38
2022-07-27T04:30:50.388Z,2.85
2022-07-27T04:33:20.570Z,2.65
2022-07-27T04:35:49.152Z,2.78
2022-07-27T04:38:17.712Z,2.60
2022-07-27T04:40:46.311Z,2.80
2022-07-27T04:43:15.155Z,2.78
2022-07-27T04:45:43.990Z,2.75
2022-07-27T04:48:12.905Z,2.65
2022-07-27T04:50:43.467Z,2.33
2022-07-27T04:53:12.306Z,2.45
2022-07-27T04:55:43.724Z,2.50
2022-07-27T04:58:12.414Z,2.60
2022-07-27T05:00:41.066Z,2.90
2022-07-27T05:03:09.692Z,2.38
2022-07-27T05:05:38.600Z,2.53
2022-07-27T05:08:08.772Z,2.42
2022-07-27T05:10:37.545Z,2.72
2022-07-27T05:13:07.576Z,2.58
2022-07-27T05:15:55.169Z,2.60
2022-07-27T05:18:25.651Z,5.40
2022-07-27T05:20:54.307Z,4.65
2022-07-27T05:23:24.431Z,3.95
2022-07-27T05:25:53.057Z,3.20
2022-07-27T05:28:21.712Z,2.80
2022-07-27T05:30:50.342Z,2.53
2022-07-27T05:33:19.036Z,2.83
2022-07-27T05:35:47.651Z,2.55
2022-07-27T05:38:16.684Z,2.55
2022-07-27T05:40:47.310Z,2.92
2022-07-27T05:43:15.933Z,2.95
2022-07-27T05:45:44.639Z,2.80
2022-07-27T05:48:13.320Z,3.13
2022-07-27T05:50:41.953Z,3.20
2022-07-27T05:53:10.570Z,3.30
2022-07-27T05:55:39.158Z,3.30
2022-07-27T05:58:29.565Z,2.90
2022-07-27T06:00:58.406Z,2.67
2022-07-27T06:03:27.105Z,2.67
2022-07-27T06:06:16.708Z,3.47
2022-07-27T06:08:45.022Z,3.60
2022-07-27T06:11:14.595Z,3.33
2022-07-27T06:13:44.607Z,3.70
2022-07-27T06:16:13.299Z,3.60
2022-07-27T06:18:41.947Z,3.40
2022-07-27T06:21:10.806Z,3.80
2022-07-27T06:23:39.434Z,3.60
2022-07-27T06:26:08.055Z,2.97
2022-07-27T06:28:36.878Z,3.47
2022-07-27T06:31:07.138Z,3.08
2022-07-27T06:33:36.743Z,3.10
2022-07-27T06:36:05.869Z,3.00
2022-07-27T06:38:34.491Z,3.10
2022-07-27T06:41:03.212Z,2.70
2022-07-27T06:43:33.289Z,2.90
2022-07-27T06:46:03.340Z,2.95
2022-07-27T06:48:33.610Z,2.80
2022-07-27T06:51:02.325Z,2.65
2022-07-27T06:53:34.735Z,2.85
2022-07-27T06:56:05.220Z,2.40
2022-07-27T06:58:34.141Z,4.03
2022-07-27T07:01:03.845Z,3.60
2022-07-27T07:03:33.977Z,3.10
2022-07-27T07:06:02.665Z,2.97
2022-07-27T07:08:31.329Z,2.83
2022-07-27T07:10:59.918Z,3.17
2022-07-27T07:13:28.551Z,2.55
2022-07-27T07:15:57.738Z,2.80
2022-07-27T07:18:26.373Z,3.22
2022-07-27T07:20:56.379Z,2.70
2022-07-27T07:23:24.998Z,2.60
2022-07-27T07:25:53.639Z,2.85
2022-07-27T07:28:22.337Z,2.90
2022-07-27T07:30:51.371Z,2.90
2022-07-27T07:33:21.032Z,2.67
2022-07-27T07:36:08.805Z,2.72
2022-07-27T07:38:39.640Z,2.55
2022-07-27T07:41:08.613Z,2.80
2022-07-27T07:43:38.742Z,2.75
2022-07-27T07:46:08.819Z,2.85
2022-07-27T07:48:39.492Z,2.88
2022-07-27T07:51:08.229Z,3.40
2022-07-27T07:53:41.440Z,2.70
2022-07-27T07:56:11.943Z,2.60
2022-07-27T07:58:40.574Z,3.45
2022-07-27T08:01:09.243Z,3.45
2022-07-27T08:03:37.878Z,3.05
2022-07-27T08:06:06.929Z,2.92
2022-07-27T08:08:35.664Z,3.42
2022-07-27T08:11:04.273Z,3.15
2022-07-27T08:13:34.234Z,3.58
2022-07-27T08:16:02.972Z,3.85
2022-07-27T08:18:31.691Z,3.03
2022-07-27T08:21:00.354Z,2.88
2022-07-27T08:23:28.983Z,3.15
2022-07-27T08:25:57.591Z,3.10
2022-07-27T08:28:26.207Z,3.15
2022-07-27T08:30:57.717Z,3.13
2022-07-27T08:33:26.336Z,2.72
2022-07-27T08:35:54.971Z,2.90
2022-07-27T08:38:27.293Z,3.20
2022-07-27T08:40:57.105Z,2.70
2022-07-27T08:43:26.155Z,3.03
2022-07-27T08:45:55.924Z,3.00
2022-07-27T08:48:26.633Z,2.50
2022-07-27T08:50:55.528Z,2.72
2022-07-27T08:53:24.455Z,2.67
2022-07-27T08:55:53.309Z,2.65
2022-07-27T08:58:21.982Z,2.70
2022-07-27T09:00:51.161Z,2.85
2022-07-27T09:03:21.469Z,2.90
2022-07-27T09:05:52.449Z,2.70
2022-07-27T09:08:24.144Z,3.00
2022-07-27T09:11:17.542Z,2.97
2022-07-27T09:13:46.195Z,2.40
2022-07-27T09:16:19.571Z,2.78
2022-07-27T09:18:49.114Z,2.78
2022-07-27T09:21:21.017Z,3.63
2022-07-27T09:23:52.872Z,2.90
2022-07-27T09:26:33.409Z,2.92
2022-07-27T09:29:04.571Z,2.53
2022-07-27T09:31:33.530Z,2.55
2022-07-27T09:34:02.957Z,2.80
2022-07-27T09:36:33.345Z,2.60
2022-07-27T09:39:05.620Z,2.20
2022-07-27T09:41:41.708Z,2.15
2022-07-27T09:46:59.205Z,2.55
2022-07-27T09:49:28.578Z,2.40
2022-07-27T09:52:01.444Z,2.50
2022-07-27T09:54:43.167Z,2.58
2022-07-27T09:57:12.011Z,2.42
2022-07-27T09:59:40.764Z,2.42
2022-07-27T10:02:09.640Z,2.60
2022-07-27T10:04:38.560Z,2.30
2022-07-27T10:07:13.560Z,2.40
2022-07-27T10:09:43.312Z,2.50
2022-07-27T10:12:12.077Z,2.30
2022-07-27T10:14:40.700Z,2.47
2022-07-27T10:17:13.308Z,2.83
2022-07-27T10:19:46.111Z,2.45
2022-07-27T10:22:17.324Z,2.47
2022-07-27T10:24:51.190Z,2.65
2022-07-27T10:27:23.022Z,2.45
2022-07-27T10:29:52.457Z,2.30
2022-07-27T10:32:27.750Z,2.72
2022-07-27T10:34:56.434Z,2.63
2022-07-27T10:37:30.085Z,2.67
2022-07-27T10:40:13.369Z,2.30
2022-07-27T10:42:42.251Z,2.42
2022-07-27T10:45:11.563Z,2.42
2022-07-27T10:47:42.036Z,2.40
2022-07-27T10:50:29.810Z,2.70
2022-07-27T10:53:02.522Z,2.65
2022-07-27T10:55:50.034Z,2.60
2022-07-27T10:58:36.555Z,2.50
2022-07-27T11:01:07.369Z,2.47
2022-07-27T11:03:42.557Z,2.80
2022-07-27T11:10:02.595Z,2.70
2022-07-27T11:11:55.858Z,2.25
2022-07-27T11:14:30.778Z,2.30
2022-07-27T11:17:39.984Z,2.58
2022-07-27T11:19:54.218Z,2.78
2022-07-27T11:23:09.079Z,2.78
2022-07-27T11:25:23.412Z,2.65
2022-07-27T11:27:52.621Z,2.30
2022-07-27T11:30:25.218Z,2.85
2022-07-27T11:32:53.994Z,2.20
2022-07-27T11:35:22.904Z,2.42
2022-07-27T11:38:02.483Z,2.22
2022-07-27T11:41:12.723Z,2.47
2022-07-27T11:43:36.761Z,2.50
2022-07-27T11:46:16.265Z,2.20
2022-07-27T11:51:37.886Z,2.03
2022-07-27T11:54:07.657Z,2.72
2022-07-27T11:56:38.442Z,2.35
2022-07-27T11:59:08.301Z,2.10
2022-07-27T12:01:38.256Z,2.20
2022-07-27T12:04:12.989Z,2.20
2022-07-27T12:06:42.639Z,2.45
2022-07-27T12:09:14.185Z,2.20
2022-07-27T12:14:14.979Z,2.80
2022-07-27T12:16:43.666Z,2.13
2022-07-27T12:19:14.779Z,2.47
2022-07-27T12:21:52.569Z,2.40
2022-07-27T12:24:21.562Z,2.40
2022-07-27T12:27:06.345Z,2.40
2022-07-27T12:29:55.850Z,2.30
2022-07-27T12:32:24.649Z,2.30
2022-07-27T12:34:53.289Z,2.20
2022-07-27T12:37:21.890Z,2.75
2022-07-27T12:39:51.081Z,2.38
2022-07-27T12:42:19.939Z,2.60
2022-07-27T12:44:52.625Z,2.45
2022-07-27T12:47:40.930Z,2.85
2022-07-27T12:50:10.720Z,2.80
2022-07-27T12:52:40.835Z,2.55
2022-07-27T12:55:15.167Z,2.45
2022-07-27T12:58:00.052Z,2.60
2022-07-27T13:00:33.869Z,2.80
2022-07-27T13:03:03.872Z,2.80
2022-07-27T13:05:32.874Z,2.50
2022-07-27T13:08:02.058Z,3.17
2022-07-27T13:10:31.003Z,2.67
2022-07-27T13:13:00.011Z,2.92
2022-07-27T13:15:30.066Z,2.70
2022-07-27T13:17:58.692Z,2.70
2022-07-27T13:20:27.529Z,3.22
2022-07-27T13:22:56.333Z,2.78
2022-07-27T13:25:24.940Z,3.13
2022-07-27T13:27:54.067Z,3.10
2022-07-27T13:30:24.583Z,2.95
2022-07-27T13:32:54.855Z,2.80
2022-07-27T13:35:23.558Z,2.70
2022-07-27T13:37:52.151Z,2.53
2022-07-27T13:40:21.834Z,3.15
2022-07-27T13:42:50.752Z,2.72
2022-07-27T13:45:19.424Z,3.03
2022-07-27T13:47:48.336Z,2.63
2022-07-27T13:50:19.914Z,3.08
2022-07-27T13:52:49.450Z,2.92
2022-07-27T13:55:18.748Z,2.85
2022-07-27T13:57:48.197Z,3.03
2022-07-27T14:00:17.657Z,2.72
2022-07-27T14:02:47.190Z,3.28
2022-07-27T14:05:19.478Z,2.40
2022-07-27T14:07:50.397Z,2.80
2022-07-27T14:10:39.734Z,3.05
2022-07-27T14:13:10.199Z,3.20
2022-07-27T14:15:50.341Z,2.80
2022-07-27T14:18:21.922Z,2.65
2022-07-27T14:20:51.553Z,2.83
2022-07-27T14:23:22.078Z,2.80
2022-07-27T14:25:50.869Z,2.90
2022-07-27T14:28:19.615Z,3.10
2022-07-27T14:30:48.402Z,2.75
2022-07-27T14:33:20.232Z,2.92
2022-07-27T14:35:49.809Z,2.97
2022-07-27T14:38:29.719Z,2.75
2022-07-27T14:41:02.136Z,2.88
2022-07-27T14:43:31.610Z,2.88
2022-07-27T14:46:00.851Z,3.00
2022-07-27T14:48:48.956Z,2.90
2022-07-27T14:51:18.200Z,3.42
2022-07-27T14:53:47.285Z,2.90
2022-07-27T14:56:17.286Z,3.13
2022-07-27T14:58:45.927Z,2.92
2022-07-27T15:01:16.823Z,3.55
2022-07-27T15:03:45.989Z,3.38
2022-07-27T15:06:14.734Z,3.13
2022-07-27T15:08:43.064Z,2.92
2022-07-27T15:11:11.410Z,2.85
2022-07-27T15:13:41.105Z,2.97
2022-07-27T15:16:09.584Z,3.00
2022-07-27T15:18:39.171Z,3.13
2022-07-27T15:21:12.845Z,2.78
2022-07-27T15:23:43.077Z,2.90
2022-07-27T15:26:11.998Z,2.70
2022-07-27T15:28:41.882Z,3.13
2022-07-27T15:31:10.285Z,3.53
2022-07-27T15:33:38.891Z,3.00
2022-07-27T15:36:07.410Z,3.10
2022-07-27T15:38:35.922Z,2.63
2022-07-27T15:41:04.304Z,2.90
2022-07-27T15:43:32.650Z,3.00
2022-07-27T15:46:02.857Z,2.85
2022-07-27T15:48:31.292Z,3.22
2022-07-27T15:50:59.693Z,2.92
2022-07-27T15:53:29.488Z,3.13
2022-07-27T15:55:58.103Z,3.30
2022-07-27T15:58:26.449Z,2.83
2022-07-27T16:00:57.532Z,2.90
2022-07-27T16:03:28.343Z,2.58
2022-07-27T16:05:58.336Z,2.65
2022-07-27T16:08:27.707Z,3.00
2022-07-27T16:10:56.137Z,3.15
2022-07-27T16:13:25.494Z,2.80
2022-07-27T16:16:11.589Z,2.80
2022-07-27T16:18:41.422Z,3.15
2022-07-27T16:21:10.062Z,2.50
2022-07-27T16:23:38.306Z,2.80
2022-07-27T16:26:08.017Z,3.00
2022-07-27T16:28:39.450Z,2.95
2022-07-27T16:31:10.343Z,2.63
2022-07-27T16:33:40.983Z,3.03
2022-07-27T16:36:09.540Z,3.30
2022-07-27T16:38:39.159Z,2.63
2022-07-27T16:41:19.172Z,2.90
2022-07-27T16:43:48.010Z,2.85
2022-07-27T16:46:16.789Z,2.70
2022-07-27T16:48:46.703Z,3.00
2022-07-27T16:51:16.273Z,3.10
2022-07-27T16:53:48.069Z,3.15
2022-07-27T16:56:16.652Z,2.97
2022-07-27T16:58:45.308Z,3.00
2022-07-27T17:01:26.318Z,2.92
2022-07-27T17:03:57.206Z,3.10
2022-07-27T17:06:29.392Z,2.92
2022-07-27T17:08:57.620Z,2.83
2022-07-27T17:11:26.184Z,2.85
2022-07-27T17:13:59.285Z,3.17
2022-07-27T17:16:29.150Z,2.95
2022-07-27T17:18:58.893Z,3.22
2022-07-27T17:21:27.660Z,2.80
2022-07-27T17:23:56.183Z,3.42
2022-07-27T17:26:25.274Z,2.47
2022-07-27T17:28:54.027Z,3.00
2022-07-27T17:31:22.692Z,2.63
2022-07-27T17:33:51.347Z,2.90
2022-07-27T17:36:21.454Z,2.90
2022-07-27T17:38:51.163Z,2.72
2022-07-27T17:41:24.420Z,2.90
2022-07-27T17:43:53.788Z,2.72
2022-07-27T17:46:23.064Z,2.70
2022-07-27T17:48:52.881Z,2.60
2022-07-27T17:51:25.331Z,2.90
2022-07-27T17:53:54.138Z,3.10
2022-07-27T17:56:22.770Z,2.30
2022-07-27T17:58:51.513Z,2.67
2022-07-27T18:01:48.120Z,3.13
2022-07-27T18:04:09.315Z,2.67
2022-07-27T18:06:39.046Z,2.85
2022-07-27T18:09:08.755Z,3.00
2022-07-27T18:11:37.322Z,3.13
2022-07-27T18:14:05.969Z,3.00
2022-07-27T18:16:39.945Z,2.40
2022-07-27T18:19:09.232Z,2.88
2022-07-27T18:21:39.045Z,2.97
2022-07-27T18:24:10.177Z,2.92
2022-07-27T18:26:40.162Z,3.13
2022-07-27T18:29:08.922Z,3.30
2022-07-27T18:31:37.552Z,3.88
2022-07-27T18:34:10.873Z,135.43
2022-07-27T18:36:42.614Z,165.57
2022-07-27T18:39:11.770Z,222.60
2022-07-27T18:41:40.786Z,147.27
2022-07-27T18:44:09.485Z,155.70
2022-07-27T18:46:38.088Z,185.30
2022-07-27T18:49:07.943Z,137.70
2022-07-27T18:51:38.643Z,188.65
2022-07-27T18:54:08.350Z,131.43
2022-07-27T18:56:39.535Z,120.25
2022-07-27T18:59:08.178Z,109.65
2022-07-27T19:01:36.732Z,147.50
2022-07-27T19:04:05.521Z,157.88
2022-07-27T19:06:34.065Z,210.57
2022-07-27T19:09:08.176Z,238.63
2022-07-27T19:11:36.507Z,136.80
2022-07-27T19:14:04.912Z,91.13
2022-07-27T19:16:34.112Z,70.30
2022-07-27T19:19:03.027Z,69.20
2022-07-27T19:21:32.243Z,63.58
2022-07-27T19:24:00.824Z,58.70
2022-07-27T19:26:30.492Z,50.70
2022-07-27T19:28:59.052Z,42.90
2022-07-27T19:31:28.398Z,20.20
2022-07-27T19:33:57.181Z,17.92
2022-07-27T19:36:25.446Z,13.63
2022-07-27T19:38:54.034Z,11.90
2022-07-27T19:41:22.662Z,15.43
2022-07-27T19:43:52.323Z,9.68
2022-07-27T19:46:21.491Z,9.88
2022-07-27T19:48:49.867Z,10.73
2022-07-27T19:51:18.496Z,9.45
2022-07-27T19:53:47.509Z,9.05
2022-07-27T19:56:15.948Z,7.95
2022-07-27T19:58:44.602Z,7.25
2022-07-27T20:01:14.453Z,8.05
2022-07-27T20:03:52.256Z,7.22
2022-07-27T20:06:23.131Z,6.88
2022-07-27T20:08:51.388Z,7.13
2022-07-27T20:11:20.243Z,6.40
2022-07-27T20:13:48.609Z,5.97
2022-07-27T20:16:18.848Z,6.18
2022-07-27T20:18:47.252Z,6.00
2022-07-27T20:21:22.632Z,6.22
2022-07-27T20:23:52.541Z,5.38
2022-07-27T20:26:21.042Z,5.72
2022-07-27T20:28:50.200Z,5.57
2022-07-27T20:31:20.262Z,5.10
2022-07-27T20:33:48.736Z,5.18
2022-07-27T20:36:17.069Z,5.82
2022-07-27T20:38:45.410Z,5.68
2022-07-27T20:41:13.776Z,5.40
2022-07-27T20:43:42.111Z,5.20
2022-07-27T20:46:10.457Z,5.93
2022-07-27T20:48:41.052Z,5.65
2022-07-27T20:51:09.395Z,5.50
2022-07-27T20:53:37.739Z,6.13
2022-07-27T20:56:06.517Z,5.60
2022-07-27T20:58:34.986Z,6.18
2022-07-27T21:01:03.380Z,5.35
2022-07-27T21:03:34.108Z,5.20
2022-07-27T21:06:04.584Z,5.60
2022-07-27T21:08:32.900Z,5.55
2022-07-27T21:11:01.235Z,6.10
2022-07-27T21:13:29.532Z,19.50
2022-07-27T21:15:57.937Z,69.63
2022-07-27T21:18:26.289Z,89.40
2022-07-27T21:20:54.730Z,103.75
2022-07-27T21:23:42.091Z,104.05
2022-07-27T21:26:10.524Z,87.78
2022-07-27T21:28:39.310Z,60.55
2022-07-27T21:31:09.611Z,106.68
2022-07-27T21:33:39.953Z,78.57
2022-07-27T21:36:08.766Z,83.57
2022-07-27T21:38:38.496Z,103.65
2022-07-27T21:41:06.818Z,106.18
2022-07-27T21:43:35.307Z,130.52
2022-07-27T21:46:03.860Z,68.68
2022-07-27T21:48:32.394Z,51.00
2022-07-27T21:51:00.700Z,33.70
2022-07-27T21:53:29.000Z,32.28
2022-07-27T21:55:59.251Z,28.92
2022-07-27T21:58:27.831Z,27.20
2022-07-27T22:00:56.300Z,26.15
2022-07-27T22:03:24.890Z,23.95
2022-07-27T22:05:53.280Z,23.00
2022-07-27T22:08:22.564Z,21.73
2022-07-27T22:10:50.946Z,19.73
2022-07-27T22:13:20.755Z,20.38
2022-07-27T22:15:49.777Z,19.73
2022-07-27T22:18:18.070Z,18.05
2022-07-27T22:20:46.374Z,17.60
2022-07-27T22:23:14.780Z,15.82
2022-07-27T22:25:43.406Z,15.77
2022-07-27T22:28:12.017Z,14.27
2022-07-27T22:30:41.830Z,12.80
2022-07-27T22:33:10.260Z,11.18
2022-07-27T22:35:38.844Z,11.43
2022-07-27T22:38:07.104Z,10.07
2022-07-27T22:40:35.725Z,9.27
2022-07-27T22:43:04.316Z,10.15
2022-07-27T22:45:32.757Z,9.57
2022-07-27T22:48:02.482Z,9.93
2022-07-27T22:50:30.815Z,8.43
2022-07-27T22:52:59.402Z,8.30
2022-07-27T22:55:28.344Z,7.75
2022-07-27T22:57:56.915Z,7.65
2022-07-27T23:00:25.331Z,6.72
2022-07-27T23:02:54.147Z,6.57
2022-07-27T23:05:24.417Z,6.85
2022-07-27T23:07:53.056Z,6.68
2022-07-27T23:10:38.830Z,5.97
2022-07-27T23:13:07.178Z,5.70
2022-07-27T23:15:35.565Z,6.07
2022-07-27T23:18:03.852Z,5.95
2022-07-27T23:20:33.575Z,5.70
2022-07-27T23:23:01.910Z,5.60
2022-07-27T23:25:36.082Z,5.28
2022-07-27T23:28:05.152Z,5.50
2022-07-27T23:30:33.446Z,5.18
2022-07-27T23:33:01.779Z,5.35
2022-07-27T23:35:30.291Z,5.63
2022-07-27T23:38:00.107Z,5.90
2022-07-27T23:40:28.991Z,5.45
2022-07-27T23:42:57.556Z,4.88
2022-07-27T23:45:26.478Z,5.22
2022-07-27T23:47:55.122Z,5.32
2022-07-27T23:50:23.847Z,5.70
2022-07-27T23:52:52.118Z,5.38
2022-07-27T23:55:21.791Z,5.35
2022-07-27T23:57:50.082Z,5.47
